createdAt,value
2024-01-16T00:11:13.720Z,81
2024-01-16T00:40:14.248Z,79
2024-01-16T01:09:19.961Z,76
2024-01-16T01:38:34.750Z,78
2024-01-16T02:07:40.473Z,81
2024-01-16T02:36:49.480Z,81
2024-01-16T03:05:59.504Z,78
2024-01-16T03:34:51.418Z,81
2024-01-16T04:04:07.443Z,82
2024-01-16T04:33:06.335Z,83
2024-01-16T05:02:07.114Z,83
2024-01-16T05:31:10.427Z,84
2024-01-16T06:00:19.360Z,88
2024-01-16T06:29:36.872Z,88
2024-01-16T06:58:13.182Z,91
2024-01-16T07:27:17.655Z,88
2024-01-16T07:56:28.762Z,89
2024-01-16T08:25:39.325Z,86
2024-01-16T08:54:48.211Z,85
2024-01-16T09:23:59.941Z,84
2024-01-16T09:53:06.368Z,81
2024-01-16T10:22:23.537Z,80
2024-01-16T10:51:07.584Z,80
2024-01-16T11:21:35.177Z,70
2024-01-16T11:50:15.843Z,68
2024-01-16T12:19:42.209Z,72
2024-01-16T12:49:03.471Z,68
2024-01-16T13:17:36.245Z,69
2024-01-16T13:47:49.074Z,64
2024-01-16T14:16:47.820Z,52
2024-01-16T14:45:05.816Z,57
2024-01-16T15:14:03.078Z,63
2024-01-16T15:43:11.146Z,66
2024-01-16T16:12:20.401Z,66
2024-01-16T16:41:06.209Z,67
2024-01-16T17:10:05.044Z,68
2024-01-16T17:39:03.993Z,69
2024-01-16T18:07:49.978Z,72
2024-01-16T18:36:56.091Z,72
2024-01-16T19:05:56.189Z,74
2024-01-16T19:35:01.240Z,76
2024-01-16T20:04:07.186Z,74
2024-01-16T20:33:12.227Z,77
2024-01-16T21:02:14.070Z,78
2024-01-16T21:31:17.191Z,78
2024-01-16T22:00:21.369Z,78
2024-01-16T22:29:29.527Z,78
2024-01-16T22:58:36.619Z,77
2024-01-16T23:27:36.017Z,79
2024-01-16T23:56:42.769Z,78
